Time;durP1;ratioP1;P1;durP2;ratioP2;P2;SDS_P1;SDS_P2;PMS_P1;PMS_P2;Temp;Humidity;BMP_temperature;BMP_pressure;BME280_temperature;BME280_humidity;BME280_pressure;Samples;Min_cycle;Max_cycle;Signal;HPM_P1;HPM_P2
2021/04/28 00:01:56;;;;;;;3.92;1.40;;;5.40;99.90;;;;;;5098583;28;20172;-69
2021/04/28 00:04:22;;;;;;;1.75;0.73;;;5.40;99.90;;;;;;5094959;28;20209;-69
2021/04/28 00:06:49;;;;;;;9.07;1.38;;;5.50;99.90;;;;;;5098532;28;20185;-70
2021/04/28 00:09:15;;;;;;;6.03;0.90;;;5.40;99.90;;;;;;5102373;28;20177;-69
2021/04/28 00:11:42;;;;;;;12.35;1.15;;;5.40;99.90;;;;;;5097846;28;20175;-70
2021/04/28 00:14:08;;;;;;;1.02;0.60;;;5.40;99.90;;;;;;5101057;28;20173;-69
2021/04/28 00:16:35;;;;;;;10.27;1.13;;;5.30;99.90;;;;;;5092744;28;20193;-69
2021/04/28 00:19:01;;;;;;;5.40;1.10;;;5.30;99.90;;;;;;5096112;28;20172;-69
2021/04/28 00:21:28;;;;;;;5.40;1.20;;;5.20;99.90;;;;;;5094752;28;20186;-70
2021/04/28 00:23:54;;;;;;;3.80;1.42;;;5.10;99.90;;;;;;5079168;28;20216;-70
2021/04/28 00:26:20;;;;;;;7.03;0.80;;;5.10;99.90;;;;;;5080034;28;20169;-70
2021/04/28 00:28:46;;;;;;;2.08;0.82;;;5.00;99.90;;;;;;5095917;28;20177;-70
2021/04/28 00:31:13;;;;;;;5.57;1.00;;;5.00;99.90;;;;;;5090389;28;20649;-70
2021/04/28 00:33:39;;;;;;;3.47;1.42;;;5.00;99.90;;;;;;5060025;28;20217;-70
2021/04/28 00:36:06;;;;;;;5.55;1.10;;;5.00;99.90;;;;;;5103400;28;20180;-70
2021/04/28 00:38:33;;;;;;;5.07;1.10;;;5.00;99.90;;;;;;5095090;28;20638;-69
2021/04/28 00:41:00;;;;;;;5.97;1.10;;;5.00;99.90;;;;;;5098379;28;20168;-69
2021/04/28 00:43:26;;;;;;;5.93;0.98;;;5.00;99.90;;;;;;5087642;28;20542;-69
2021/04/28 00:45:52;;;;;;;4.80;1.30;;;4.90;99.90;;;;;;5082384;28;20504;-69
2021/04/28 00:48:19;;;;;;;6.97;1.65;;;4.90;99.90;;;;;;5091942;28;20176;-69
2021/04/28 00:50:46;;;;;;;2.83;1.50;;;4.80;99.90;;;;;;5096601;28;20178;-69
2021/04/28 00:53:15;;;;;;;5.90;1.45;;;4.80;99.90;;;;;;5096921;28;20181;-70
2021/04/28 00:55:41;;;;;;;6.28;1.30;;;4.70;99.90;;;;;;5074392;28;20184;-69
2021/04/28 00:58:07;;;;;;;7.32;1.40;;;4.70;99.90;;;;;;5086770;28;20172;-69
2021/04/28 01:00:33;;;;;;;5.70;1.40;;;4.60;99.90;;;;;;5102570;28;20188;-70
2021/04/28 01:03:00;;;;;;;6.60;1.30;;;4.50;99.90;;;;;;5092065;28;20201;-69
2021/04/28 01:05:27;;;;;;;21.02;1.77;;;4.50;99.90;;;;;;5100407;28;20728;-69
2021/04/28 01:07:53;;;;;;;8.73;1.45;;;4.40;99.90;;;;;;5092605;28;20173;-70
2021/04/28 01:10:27;;;;;;;4.05;1.40;;;4.30;99.90;;;;;;5096101;28;20640;-69
2021/04/28 01:12:54;;;;;;;4.50;1.38;;;4.20;99.90;;;;;;5061630;28;20642;-70
2021/04/28 01:15:22;;;;;;;6.45;1.73;;;4.20;99.90;;;;;;5093832;28;20188;-70
2021/04/28 01:17:48;;;;;;;4.07;1.80;;;4.20;99.90;;;;;;5098762;28;20169;-69
2021/04/28 01:20:16;;;;;;;2.13;1.35;;;4.20;99.90;;;;;;5091179;28;20170;-69
2021/04/28 01:22:45;;;;;;;4.20;1.50;;;4.10;99.90;;;;;;5076665;28;20177;-69
2021/04/28 01:25:13;;;;;;;7.50;1.35;;;4.00;99.90;;;;;;5105337;28;20185;-70
2021/04/28 01:27:42;;;;;;;4.93;1.58;;;4.00;99.90;;;;;;5093951;28;20185;-70
2021/04/28 01:30:09;;;;;;;14.07;1.98;;;3.90;99.90;;;;;;5094816;28;20188;-70
2021/04/28 01:32:35;;;;;;;2.88;1.50;;;3.80;99.90;;;;;;5090524;28;20188;-70
2021/04/28 01:35:02;;;;;;;3.30;1.92;;;3.80;99.90;;;;;;5093861;28;20225;-70
2021/04/28 01:37:28;;;;;;;7.45;1.60;;;3.70;99.90;;;;;;5092020;28;20169;-71
2021/04/28 01:39:54;;;;;;;5.13;2.15;;;3.70;99.90;;;;;;5098117;28;20177;-70
2021/04/28 01:42:21;;;;;;;2.42;1.40;;;3.60;99.90;;;;;;5083280;28;20173;-70
2021/04/28 01:44:48;;;;;;;7.35;1.70;;;3.60;99.90;;;;;;5100368;28;20205;-69
2021/04/28 01:47:14;;;;;;;10.18;1.77;;;3.60;99.90;;;;;;5080243;28;20170;-69
2021/04/28 01:49:41;;;;;;;3.53;1.40;;;3.60;99.90;;;;;;5078213;28;20524;-68
2021/04/28 01:52:07;;;;;;;7.07;1.80;;;3.60;99.90;;;;;;5080367;28;20165;-69
2021/04/28 01:54:33;;;;;;;4.82;1.70;;;3.60;99.90;;;;;;5091369;28;20169;-69
2021/04/28 01:56:59;;;;;;;6.70;1.83;;;3.50;99.90;;;;;;5083808;28;20184;-69
2021/04/28 01:59:25;;;;;;;6.93;1.35;;;3.50;99.90;;;;;;5076084;28;20184;-69
2021/04/28 02:01:53;;;;;;;3.63;1.60;;;3.50;99.90;;;;;;5096569;28;20191;-69
2021/04/28 02:04:19;;;;;;;6.38;1.60;;;3.50;99.90;;;;;;5075983;28;20200;-69
2021/04/28 02:06:47;;;;;;;6.32;1.33;;;3.50;99.90;;;;;;5094257;28;20184;-70
2021/04/28 02:09:13;;;;;;;4.25;1.52;;;3.50;99.90;;;;;;5082064;28;20169;-69
2021/04/28 02:11:39;;;;;;;5.88;1.50;;;3.50;99.90;;;;;;5090810;28;20185;-69
2021/04/28 02:14:06;;;;;;;5.45;1.55;;;3.50;99.90;;;;;;5100246;28;20185;-70
2021/04/28 02:16:33;;;;;;;3.35;1.52;;;3.40;99.90;;;;;;5089117;28;20173;-69
2021/04/28 02:19:06;;;;;;;3.30;1.38;;;3.40;99.90;;;;;;5096127;28;20187;-70
2021/04/28 02:21:32;;;;;;;4.80;1.65;;;3.30;99.90;;;;;;5091432;28;20193;-69
2021/04/28 02:23:59;;;;;;;5.05;1.63;;;3.20;99.90;;;;;;5085555;28;20197;-69
2021/04/28 02:26:25;;;;;;;4.93;1.60;;;3.10;99.90;;;;;;5080407;28;20502;-69
2021/04/28 02:28:51;;;;;;;5.57;1.70;;;3.10;99.90;;;;;;5091623;28;20192;-69
2021/04/28 02:31:17;;;;;;;5.78;1.70;;;3.00;99.90;;;;;;5090241;28;20174;-69
2021/04/28 02:33:43;;;;;;;5.25;1.77;;;3.00;99.90;;;;;;5094879;28;20217;-69
2021/04/28 02:36:10;;;;;;;6.18;1.50;;;2.90;99.90;;;;;;5102440;28;20629;-69
2021/04/28 02:38:59;;;;;;;4.97;1.75;;;2.90;99.90;;;;;;5090966;28;20178;-69
2021/04/28 02:41:25;;;;;;;5.15;1.70;;;2.80;99.90;;;;;;5078915;28;20197;-68
2021/04/28 02:43:52;;;;;;;5.65;1.65;;;2.70;99.90;;;;;;5094603;28;20205;-69
2021/04/28 02:46:18;;;;;;;5.97;1.77;;;2.60;99.90;;;;;;5076946;28;20185;-69
2021/04/28 02:48:44;;;;;;;5.75;1.75;;;2.60;99.90;;;;;;5079227;28;20180;-70
2021/04/28 02:51:11;;;;;;;7.05;1.85;;;2.50;99.90;;;;;;5086989;28;20173;-69
2021/04/28 02:53:37;;;;;;;8.73;1.98;;;2.50;99.90;;;;;;5083214;28;20521;-69
2021/04/28 02:56:03;;;;;;;6.50;1.85;;;2.40;99.90;;;;;;5075052;28;20186;-69
2021/04/28 02:58:29;;;;;;;6.53;1.70;;;2.40;99.90;;;;;;5103786;28;20184;-70
2021/04/28 03:00:56;;;;;;;10.35;1.98;;;2.30;99.90;;;;;;5101375;28;20181;-69
2021/04/28 03:03:22;;;;;;;6.75;1.70;;;2.30;99.90;;;;;;5098068;28;20177;-69
2021/04/28 03:05:52;;;;;;;8.73;1.90;;;2.20;99.90;;;;;;5096697;28;20181;-69
2021/04/28 03:08:21;;;;;;;10.55;4.47;;;2.10;99.90;;;;;;5102008;28;20538;-69
2021/04/28 03:10:48;;;;;;;7.47;2.28;;;2.10;99.90;;;;;;5097200;28;20184;-69
2021/04/28 03:13:14;;;;;;;9.32;2.03;;;2.00;99.90;;;;;;5099734;28;20180;-69
2021/04/28 03:15:41;;;;;;;3.67;1.90;;;1.90;99.90;;;;;;5095842;28;20169;-69
2021/04/28 03:18:07;;;;;;;8.25;3.20;;;1.90;99.90;;;;;;5098638;28;20173;-69
2021/04/28 03:20:34;;;;;;;7.28;2.03;;;1.90;99.90;;;;;;5091563;28;20170;-69
2021/04/28 03:23:01;;;;;;;3.65;1.80;;;1.80;99.90;;;;;;5093114;28;20184;-69
2021/04/28 03:25:27;;;;;;;6.03;1.70;;;1.80;99.90;;;;;;5089904;28;20169;-69
2021/04/28 03:27:53;;;;;;;9.57;1.95;;;1.70;99.90;;;;;;5093707;28;20169;-69
2021/04/28 03:30:20;;;;;;;6.15;1.40;;;1.70;99.90;;;;;;5095323;28;20178;-69
2021/04/28 03:32:46;;;;;;;4.18;1.60;;;1.70;99.90;;;;;;5101965;28;20180;-68
2021/04/28 03:35:13;;;;;;;2.83;1.80;;;1.70;99.90;;;;;;5093306;28;20228;-69
2021/04/28 03:37:39;;;;;;;21.95;4.03;;;1.70;99.90;;;;;;5092861;28;20510;-69
2021/04/28 03:40:07;;;;;;;6.85;1.60;;;1.70;99.90;;;;;;5093966;28;20188;-69
2021/04/28 03:42:33;;;;;;;3.30;1.50;;;1.60;99.90;;;;;;5092718;28;20586;-68
2021/04/28 03:44:59;;;;;;;7.65;1.65;;;1.60;99.90;;;;;;5094503;28;20212;-69
2021/04/28 03:47:25;;;;;;;4.10;1.70;;;1.60;99.90;;;;;;5094212;28;20545;-69
2021/04/28 03:49:51;;;;;;;10.05;1.52;;;1.60;99.90;;;;;;5094379;28;20178;-69
2021/04/28 03:52:18;;;;;;;6.10;1.73;;;1.50;99.90;;;;;;5093318;28;20165;-69
2021/04/28 03:54:44;;;;;;;4.65;2.08;;;1.50;99.90;;;;;;5091331;28;20551;-68
2021/04/28 03:57:10;;;;;;;5.50;2.47;;;1.50;99.90;;;;;;5075016;28;20611;-68
2021/04/28 03:59:36;;;;;;;2.80;1.88;;;1.50;99.90;;;;;;5097384;28;20537;-68
2021/04/28 04:02:03;;;;;;;4.13;1.77;;;1.50;99.90;;;;;;5093242;28;20173;-69
2021/04/28 04:04:29;;;;;;;3.90;1.85;;;1.50;99.90;;;;;;5093270;28;20209;-69
2021/04/28 04:06:56;;;;;;;8.43;2.30;;;1.50;99.90;;;;;;5093191;28;20656;-69
2021/04/28 04:09:22;;;;;;;5.20;1.77;;;1.60;99.90;;;;;;5093222;28;20654;-67
2021/04/28 04:11:49;;;;;;;11.90;2.80;;;1.60;99.90;;;;;;5090946;28;20169;-70
2021/04/28 04:14:16;;;;;;;18.38;3.33;;;1.70;99.90;;;;;;5094885;28;20173;-70
2021/04/28 04:16:42;;;;;;;46.05;4.07;;;1.80;99.90;;;;;;5092617;28;20545;-68
2021/04/28 04:19:08;;;;;;;39.22;4.25;;;1.90;99.90;;;;;;5092277;28;20182;-69
2021/04/28 04:21:34;;;;;;;26.40;4.32;;;1.90;99.90;;;;;;5094184;28;20210;-69
2021/04/28 04:24:00;;;;;;;30.70;3.85;;;1.90;99.90;;;;;;5095352;28;20236;-69
2021/04/28 04:26:26;;;;;;;31.45;3.67;;;2.00;99.90;;;;;;5096625;28;20541;-68
2021/04/28 04:28:52;;;;;;;20.08;2.85;;;2.00;99.90;;;;;;5095137;28;20196;-70
2021/04/28 04:31:19;;;;;;;29.48;4.63;;;2.10;99.90;;;;;;5094306;28;20193;-71
2021/04/28 04:33:45;;;;;;;30.85;3.30;;;2.20;99.90;;;;;;5075839;28;20209;-70
2021/04/28 04:36:11;;;;;;;31.42;3.00;;;2.30;99.90;;;;;;5095574;28;20185;-70
2021/04/28 04:38:37;;;;;;;20.90;2.80;;;2.40;99.90;;;;;;5099305;28;20177;-70
2021/04/28 04:41:03;;;;;;;26.88;3.22;;;2.50;99.90;;;;;;5097330;28;20188;-70
2021/04/28 04:43:29;;;;;;;20.67;4.05;;;2.60;99.90;;;;;;5080416;28;20177;-71
2021/04/28 04:45:55;;;;;;;28.90;3.15;;;2.70;99.90;;;;;;5093904;28;20193;-70
2021/04/28 04:48:22;;;;;;;18.50;2.42;;;2.80;99.90;;;;;;5094935;28;20259;-71
2021/04/28 04:50:48;;;;;;;17.48;3.53;;;2.90;99.90;;;;;;5097647;28;20180;-71
2021/04/28 04:53:14;;;;;;;13.27;2.90;;;3.10;99.90;;;;;;5099661;28;20184;-71
2021/04/28 04:55:40;;;;;;;20.42;3.33;;;3.20;99.90;;;;;;5080997;28;20169;-71
2021/04/28 04:58:06;;;;;;;19.00;2.90;;;3.30;99.90;;;;;;5095323;28;20512;-71
2021/04/28 05:00:33;;;;;;;19.60;2.67;;;3.40;99.90;;;;;;5076412;28;20637;-72
2021/04/28 05:02:59;;;;;;;10.40;2.25;;;3.40;99.90;;;;;;5095319;28;20180;-72
2021/04/28 05:05:25;;;;;;;16.50;2.50;;;3.50;99.90;;;;;;5099302;28;20205;-72
2021/04/28 05:07:53;;;;;;;19.10;2.72;;;3.60;99.90;;;;;;5098466;28;20553;-72
2021/04/28 05:10:19;;;;;;;12.50;3.33;;;3.70;99.90;;;;;;5096340;28;20177;-71
2021/04/28 05:12:46;;;;;;;31.75;3.15;;;3.80;99.90;;;;;;5094627;28;20184;-71
2021/04/28 05:15:14;;;;;;;11.85;1.95;;;3.90;99.90;;;;;;5093934;28;20165;-71
2021/04/28 05:17:40;;;;;;;14.23;2.40;;;4.00;99.90;;;;;;5097931;28;20170;-71
2021/04/28 05:20:07;;;;;;;19.20;2.67;;;4.10;99.90;;;;;;5098713;28;20169;-71
2021/04/28 05:22:34;;;;;;;23.35;2.70;;;4.20;99.90;;;;;;5095993;28;20185;-71
2021/04/28 05:25:00;;;;;;;31.02;3.20;;;4.30;99.90;;;;;;5097744;28;20665;-72
2021/04/28 05:27:26;;;;;;;10.00;1.77;;;4.40;99.90;;;;;;5095239;28;20169;-72
2021/04/28 05:29:53;;;;;;;15.05;1.65;;;4.50;99.90;;;;;;5095464;28;20173;-72
2021/04/28 05:32:19;;;;;;;4.32;1.23;;;4.50;99.90;;;;;;5095346;28;20166;-72
2021/04/28 05:34:45;;;;;;;7.90;1.45;;;4.70;99.90;;;;;;5094841;28;20228;-73
2021/04/28 05:37:17;;;;;;;18.05;1.48;;;4.80;99.90;;;;;;5097369;28;20525;-74
2021/04/28 05:39:44;;;;;;;3.00;1.00;;;4.90;99.90;;;;;;5095873;28;20169;-73
2021/04/28 05:42:10;;;;;;;3.80;1.52;;;4.90;99.90;;;;;;5096197;28;20551;-72
2021/04/28 05:44:36;;;;;;;4.75;1.65;;;5.00;99.90;;;;;;5092190;28;20217;-73
2021/04/28 05:47:03;;;;;;;1.95;0.95;;;5.10;99.90;;;;;;5097549;28;20177;-74
2021/04/28 05:49:29;;;;;;;2.72;0.98;;;5.10;99.90;;;;;;5090654;28;20185;-74
2021/04/28 05:51:55;;;;;;;7.75;1.20;;;5.20;99.90;;;;;;5096877;28;20184;-73
2021/04/28 05:54:21;;;;;;;2.50;1.08;;;5.30;99.90;;;;;;5096172;28;20165;-72
2021/04/28 05:56:47;;;;;;;2.28;1.05;;;5.50;99.90;;;;;;5090707;28;20181;-73
2021/04/28 05:59:14;;;;;;;4.80;1.08;;;5.60;99.90;;;;;;5100071;28;20173;-73
2021/04/28 06:01:40;;;;;;;4.45;1.13;;;5.70;99.90;;;;;;5091489;28;20197;-72
2021/04/28 06:04:06;;;;;;;7.47;1.15;;;5.80;99.90;;;;;;5099370;28;20204;-78
2021/04/28 06:06:32;;;;;;;1.27;0.60;;;5.90;99.90;;;;;;5099221;28;20177;-71
2021/04/28 06:08:59;;;;;;;1.88;0.85;;;5.80;99.90;;;;;;5093742;28;20196;-74
2021/04/28 06:11:25;;;;;;;12.77;1.00;;;5.80;99.90;;;;;;5090472;28;20173;-73
2021/04/28 06:13:51;;;;;;;3.97;0.75;;;5.90;99.90;;;;;;5091722;28;20176;-73
2021/04/28 06:16:17;;;;;;;1.65;0.70;;;6.10;99.90;;;;;;5091608;28;20173;-72
2021/04/28 06:18:43;;;;;;;15.13;1.20;;;6.20;99.90;;;;;;5089584;28;20667;-71
2021/04/28 06:21:10;;;;;;;2.50;1.00;;;6.40;99.90;;;;;;5091860;28;20182;-73
2021/04/28 06:23:36;;;;;;;1.42;0.95;;;6.50;99.90;;;;;;5091602;28;20177;-71
2021/04/28 06:26:03;;;;;;;5.40;1.10;;;6.60;99.90;;;;;;5091488;28;20192;-71
2021/04/28 06:28:29;;;;;;;3.45;1.05;;;6.60;99.90;;;;;;5089821;28;20169;-72
2021/04/28 06:30:56;;;;;;;4.97;1.23;;;6.60;99.90;;;;;;5099614;28;20187;-72
2021/04/28 06:33:22;;;;;;;1.92;0.93;;;6.60;99.90;;;;;;5103268;28;20655;-72
2021/04/28 06:35:48;;;;;;;1.42;0.73;;;6.70;99.90;;;;;;5100314;28;20210;-71
2021/04/28 06:38:14;;;;;;;4.53;0.80;;;7.00;99.90;;;;;;5101203;28;20188;-72
2021/04/28 06:40:41;;;;;;;5.20;1.42;;;7.10;99.90;;;;;;5101987;28;20549;-71
2021/04/28 06:43:07;;;;;;;7.05;1.40;;;7.30;99.90;;;;;;5100456;28;20185;-71
2021/04/28 06:45:35;;;;;;;6.68;1.20;;;7.40;99.90;;;;;;5106346;28;20224;-71
2021/04/28 06:48:05;;;;;;;11.10;1.90;;;7.50;99.90;;;;;;5104010;28;20172;-70
2021/04/28 06:50:31;;;;;;;4.18;1.30;;;7.70;99.90;;;;;;5099825;28;20172;-73
2021/04/28 06:52:57;;;;;;;3.80;1.20;;;7.80;99.90;;;;;;5105621;28;20160;-71
2021/04/28 06:55:23;;;;;;;14.15;1.77;;;7.80;99.90;;;;;;5101497;28;20532;-70
2021/04/28 06:57:56;;;;;;;4.18;1.10;;;8.00;99.90;;;;;;5105207;28;20191;-73
2021/04/28 07:00:24;;;;;;;2.65;1.13;;;8.10;99.90;;;;;;5099447;28;20206;-75
2021/04/28 07:02:50;;;;;;;5.25;0.82;;;8.10;99.90;;;;;;5100325;28;20549;-73
2021/04/28 07:05:16;;;;;;;7.50;1.10;;;7.90;99.90;;;;;;5094757;28;20200;-73
2021/04/28 07:07:43;;;;;;;4.65;1.10;;;7.90;99.90;;;;;;5095026;28;20181;-74
2021/04/28 07:10:09;;;;;;;3.03;1.10;;;8.00;99.90;;;;;;5094903;28;20173;-73
2021/04/28 07:12:36;;;;;;;1.83;0.90;;;8.00;99.90;;;;;;5092820;28;20173;-74
2021/04/28 07:15:03;;;;;;;1.77;1.00;;;8.10;99.90;;;;;;5095089;28;20169;-73
2021/04/28 07:17:29;;;;;;;4.78;0.85;;;8.30;99.90;;;;;;5094714;28;20192;-74
2021/04/28 07:19:55;;;;;;;5.63;1.10;;;8.30;99.00;;;;;;5094956;28;20192;-79
2021/04/28 07:22:22;;;;;;;4.30;1.08;;;8.40;99.90;;;;;;5076165;28;20539;-75
2021/04/28 07:24:49;;;;;;;2.22;1.00;;;8.40;99.80;;;;;;5101694;28;20201;-76
2021/04/28 07:27:16;;;;;;;3.97;0.93;;;8.40;99.30;;;;;;5094818;28;20648;-72
2021/04/28 07:29:42;;;;;;;2.97;1.45;;;8.60;98.40;;;;;;5094659;28;20185;-74
2021/04/28 07:32:08;;;;;;;2.42;0.90;;;8.60;98.40;;;;;;5094197;28;20177;-64
2021/04/28 07:34:35;;;;;;;4.18;1.17;;;8.80;98.40;;;;;;5100995;28;20247;-73
2021/04/28 07:37:03;;;;;;;3.15;0.95;;;8.90;98.00;;;;;;5101919;28;20170;-72
2021/04/28 07:39:29;;;;;;;5.20;1.30;;;9.10;98.10;;;;;;5099148;28;20169;-75
2021/04/28 07:41:55;;;;;;;6.40;1.10;;;9.30;97.40;;;;;;5096770;28;20204;-74
2021/04/28 07:44:24;;;;;;;3.78;1.17;;;9.30;96.90;;;;;;5102135;28;20205;-74
2021/04/28 07:46:51;;;;;;;6.38;1.25;;;9.40;97.00;;;;;;5102989;28;20178;-73
2021/04/28 07:49:17;;;;;;;3.83;1.15;;;9.50;96.70;;;;;;5097463;28;20174;-74
2021/04/28 07:51:43;;;;;;;71.43;4.38;;;10.10;97.20;;;;;;5094799;28;20633;-80
2021/04/28 07:54:10;;;;;;;3.97;1.30;;;10.80;96.10;;;;;;5092643;27;20204;-76
2021/04/28 07:56:36;;;;;;;3.13;1.02;;;11.30;93.40;;;;;;5092245;28;20681;-76
2021/04/28 07:59:02;;;;;;;3.05;1.42;;;11.40;93.50;;;;;;5093227;28;20185;-78
2021/04/28 08:01:29;;;;;;;3.50;1.52;;;12.30;92.20;;;;;;5094684;28;20177;-78
2021/04/28 08:03:55;;;;;;;4.88;1.52;;;12.50;90.60;;;;;;5095853;28;20204;-74
2021/04/28 08:06:21;;;;;;;4.75;1.20;;;13.10;88.00;;;;;;5094206;28;20188;-81
2021/04/28 08:08:48;;;;;;;4.63;1.15;;;13.20;85.10;;;;;;5075802;28;20517;-80
2021/04/28 08:11:14;;;;;;;1.50;1.00;;;13.20;83.30;;;;;;5093835;28;20184;-79
2021/04/28 08:13:40;;;;;;;5.10;1.17;;;13.10;82.50;;;;;;5092662;28;20184;-77
2021/04/28 08:16:07;;;;;;;3.72;0.90;;;13.20;83.00;;;;;;5093105;28;20546;-76
2021/04/28 08:18:34;;;;;;;6.35;1.23;;;13.70;81.40;;;;;;5092638;28;20184;-76
2021/04/28 08:21:00;;;;;;;3.15;0.98;;;14.40;83.10;;;;;;5093632;28;20173;-76
2021/04/28 08:23:30;;;;;;;3.13;0.98;;;14.00;75.80;;;;;;5072875;28;20540;-75
2021/04/28 08:26:02;;;;;;;6.68;1.13;;;14.30;74.80;;;;;;5092838;28;20212;-74
2021/04/28 08:28:29;;;;;;;2.03;0.90;;;14.30;73.40;;;;;;5089725;28;20232;-76
2021/04/28 08:30:55;;;;;;;3.47;0.82;;;13.80;73.30;;;;;;5092111;28;20177;-76
2021/04/28 08:33:21;;;;;;;5.97;0.80;;;13.60;74.50;;;;;;5092287;28;20176;-76
2021/04/28 08:35:47;;;;;;;2.55;0.90;;;13.90;75.00;;;;;;5093429;28;20633;-73
2021/04/28 08:38:13;;;;;;;3.40;1.00;;;14.20;70.80;;;;;;5093935;28;20193;-77
2021/04/28 08:40:39;;;;;;;1.52;0.82;;;13.80;70.80;;;;;;5093149;28;20177;-78
2021/04/28 08:43:06;;;;;;;5.18;0.80;;;14.40;74.10;;;;;;5093994;28;20166;-78
2021/04/28 08:45:32;;;;;;;2.83;0.77;;;14.10;68.90;;;;;;5092248;28;20213;-74
2021/04/28 08:47:59;;;;;;;2.88;0.68;;;14.00;67.10;;;;;;5092828;28;20192;-73
2021/04/28 08:50:25;;;;;;;2.28;0.80;;;14.10;68.30;;;;;;5092137;28;20181;-76
2021/04/28 08:52:52;;;;;;;2.80;0.80;;;13.90;68.70;;;;;;5093110;28;20175;-77
2021/04/28 08:55:18;;;;;;;1.30;0.82;;;14.20;68.20;;;;;;5093612;28;20209;-76
2021/04/28 08:57:44;;;;;;;1.35;0.70;;;13.90;68.00;;;;;;5074780;28;20549;-74
2021/04/28 09:00:11;;;;;;;1.65;0.93;;;14.60;71.80;;;;;;5094025;28;20534;-74
2021/04/28 09:02:53;;;;;;;1.63;0.90;;;14.30;68.00;;;;;;5099217;28;20184;-77
2021/04/28 09:05:19;;;;;;;1.25;0.80;;;14.80;70.20;;;;;;5097088;28;20223;-74
2021/04/28 09:07:46;;;;;;;4.25;0.95;;;14.70;70.70;;;;;;5094184;28;20185;-76
2021/04/28 09:10:15;;;;;;;7.68;0.90;;;14.60;69.80;;;;;;5082749;28;20173;-72
2021/04/28 09:12:49;;;;;;;2.33;0.68;;;15.20;67.90;;;;;;5100509;28;20177;-72
2021/04/28 09:15:39;;;;;;;2.08;0.80;;;14.60;68.20;;;;;;5082763;28;20165;-70
2021/04/28 09:18:07;;;;;;;3.05;0.73;;;14.60;68.20;;;;;;5090526;28;20557;-71
2021/04/28 09:20:39;;;;;;;1.42;0.90;;;14.80;68.30;;;;;;5091477;28;20173;-70
2021/04/28 09:23:12;;;;;;;1.50;0.80;;;15.00;67.20;;;;;;5092934;28;20165;-71
2021/04/28 09:25:46;;;;;;;2.28;0.90;;;15.40;64.90;;;;;;5092824;28;20217;-73
2021/04/28 09:28:18;;;;;;;7.43;0.95;;;15.00;65.10;;;;;;5088564;28;20177;-71
2021/04/28 09:30:44;;;;;;;1.48;0.70;;;14.90;66.70;;;;;;5090614;28;20184;-71
2021/04/28 09:33:11;;;;;;;2.28;0.75;;;15.50;65.30;;;;;;5092044;28;20169;-69
2021/04/28 09:35:37;;;;;;;9.77;1.17;;;15.90;65.40;;;;;;5091800;28;20235;-70
2021/04/28 09:38:04;;;;;;;2.70;0.80;;;16.30;66.80;;;;;;5092352;28;20173;-69
2021/04/28 09:41:03;;;;;;;3.70;0.90;;;16.10;64.80;;;;;;5091440;28;20185;-69
2021/04/28 09:43:36;;;;;;;1.25;1.00;;;16.20;63.80;;;;;;5092338;28;20173;-70
2021/04/28 09:46:02;;;;;;;1.55;0.90;;;16.10;63.80;;;;;;5090993;28;20561;-70
2021/04/28 09:48:28;;;;;;;2.35;0.95;;;15.80;64.50;;;;;;5091658;28;20169;-72
2021/04/28 09:51:06;;;;;;;1.17;0.60;;;16.40;65.10;;;;;;5091387;28;20181;-72
2021/04/28 09:53:32;;;;;;;6.45;0.77;;;16.70;63.00;;;;;;5090725;28;20184;-70
2021/04/28 09:55:58;;;;;;;2.35;0.65;;;16.50;63.00;;;;;;5091445;28;20181;-69
2021/04/28 09:58:47;;;;;;;4.70;0.80;;;16.60;62.30;;;;;;5092123;28;20539;-73
2021/04/28 10:01:28;;;;;;;5.47;0.65;;;16.80;58.90;;;;;;5084250;28;20178;-72
2021/04/28 10:03:55;;;;;;;1.52;0.60;;;16.70;59.10;;;;;;5091429;28;20509;-71
2021/04/28 10:06:40;;;;;;;1.33;0.80;;;16.20;58.80;;;;;;5090607;28;20205;-72
2021/04/28 10:09:26;;;;;;;1.85;0.68;;;16.30;61.30;;;;;;5091815;28;20177;-71
2021/04/28 10:11:53;;;;;;;6.65;0.68;;;16.10;57.70;;;;;;5091073;28;20184;-72
2021/04/28 10:14:19;;;;;;;1.33;0.60;;;16.20;54.40;;;;;;5090510;28;20177;-71
2021/04/28 10:16:46;;;;;;;8.88;0.77;;;16.20;57.40;;;;;;5091086;28;20185;-71
2021/04/28 10:19:13;;;;;;;2.25;0.70;;;16.10;54.40;;;;;;5090405;28;20650;-71
2021/04/28 10:21:39;;;;;;;0.90;0.60;;;15.70;56.30;;;;;;5073775;28;20243;-71
2021/04/28 10:24:06;;;;;;;2.28;0.73;;;15.60;55.60;;;;;;5076375;28;20173;-72
2021/04/28 10:26:32;;;;;;;3.35;0.70;;;15.90;55.30;;;;;;5089936;28;20236;-73
2021/04/28 10:28:58;;;;;;;7.35;0.75;;;16.30;55.20;;;;;;5093701;28;20165;-72
2021/04/28 10:31:25;;;;;;;1.42;0.63;;;15.90;53.00;;;;;;5083139;28;20670;-71
2021/04/28 10:33:52;;;;;;;2.83;0.63;;;15.70;53.60;;;;;;5094349;28;20208;-71
2021/04/28 10:36:18;;;;;;;3.72;0.80;;;16.20;54.90;;;;;;5082169;28;20168;-72
2021/04/28 10:38:45;;;;;;;1.15;0.63;;;16.90;53.70;;;;;;5096948;28;20161;-70
2021/04/28 10:41:40;;;;;;;2.15;0.50;;;17.20;55.20;;;;;;5073923;28;20566;-70
2021/04/28 10:44:07;;;;;;;1.75;0.70;;;16.90;48.80;;;;;;5096551;28;20530;-68
2021/04/28 10:46:33;;;;;;;1.42;0.60;;;17.80;49.90;;;;;;5095509;28;20212;-71
2021/04/28 10:49:18;;;;;;;2.67;0.70;;;17.40;47.70;;;;;;5099515;28;20183;-70
2021/04/28 10:51:46;;;;;;;1.23;0.50;;;16.80;47.50;;;;;;5094043;28;20161;-71
2021/04/28 10:54:28;;;;;;;2.28;0.77;;;17.00;48.20;;;;;;5102712;28;20177;-69
2021/04/28 10:57:07;;;;;;;3.00;0.60;;;16.60;45.30;;;;;;5096585;28;20165;-69
2021/04/28 10:59:37;;;;;;;0.50;0.50;;;16.50;46.90;;;;;;5104813;28;20183;-71
2021/04/28 11:02:10;;;;;;;2.63;0.60;;;16.40;46.20;;;;;;5115973;28;20184;-71
2021/04/28 11:04:36;;;;;;;0.55;0.50;;;17.30;45.00;;;;;;5117443;28;20179;-69
2021/04/28 11:07:02;;;;;;;2.35;0.60;;;17.70;44.40;;;;;;5119710;28;20184;-72
2021/04/28 11:09:29;;;;;;;1.25;0.70;;;18.30;47.30;;;;;;5111138;28;20176;-70
2021/04/28 11:11:57;;;;;;;1.42;0.95;;;17.90;44.70;;;;;;5091589;28;20637;-70
2021/04/28 11:14:27;;;;;;;2.30;0.55;;;17.10;45.70;;;;;;5091433;28;20520;-72
2021/04/28 11:16:55;;;;;;;4.85;0.70;;;17.60;45.00;;;;;;5099833;28;20192;-71
2021/04/28 11:19:35;;;;;;;7.65;0.70;;;17.30;48.80;;;;;;5093482;28;20189;-71
2021/04/28 11:22:20;;;;;;;1.55;0.68;;;17.30;45.90;;;;;;5094928;28;20177;-71
2021/04/28 11:25:03;;;;;;;5.50;0.93;;;16.40;45.50;;;;;;5096895;28;20280;-72
2021/04/28 11:28:01;;;;;;;2.95;0.80;;;17.50;49.40;;;;;;5098595;28;20165;-73
2021/04/28 11:30:35;;;;;;;2.05;0.70;;;17.90;44.70;;;;;;5097649;28;20185;-70
2021/04/28 11:33:17;;;;;;;3.78;0.75;;;17.60;51.00;;;;;;5095162;28;20166;-72
2021/04/28 11:35:52;;;;;;;1.30;0.70;;;17.70;52.10;;;;;;5101871;28;20213;-70
2021/04/28 11:38:29;;;;;;;3.08;0.75;;;18.00;51.00;;;;;;5100138;28;20181;-69
2021/04/28 11:41:23;;;;;;;1.20;0.80;;;18.20;46.90;;;;;;5102179;28;20228;-72
2021/04/28 11:43:54;;;;;;;1.48;0.80;;;18.30;49.80;;;;;;5102586;28;20521;-70
2021/04/28 11:46:22;;;;;;;4.30;0.70;;;18.20;44.40;;;;;;5101328;28;20211;-71
2021/04/28 11:48:52;;;;;;;4.50;0.80;;;17.60;46.00;;;;;;5101609;28;20206;-70
2021/04/28 11:51:24;;;;;;;2.03;1.27;;;17.10;47.80;;;;;;5102249;28;20536;-72
2021/04/28 11:53:52;;;;;;;1.73;0.77;;;16.50;49.40;;;;;;5102731;28;20180;-72
2021/04/28 11:56:36;;;;;;;6.00;0.95;;;16.10;51.00;;;;;;5094664;28;20650;-70
2021/04/28 11:59:05;;;;;;;4.00;1.60;;;16.60;52.20;;;;;;5092798;28;20157;-69
2021/04/28 12:01:31;;;;;;;6.80;1.30;;;16.20;48.10;;;;;;5094609;28;20180;-71
2021/04/28 12:04:09;;;;;;;3.60;1.83;;;15.40;50.70;;;;;;5092354;28;20176;-72
2021/04/28 12:06:35;;;;;;;3.67;1.33;;;15.50;49.60;;;;;;5098127;28;20196;-70
2021/04/28 12:09:05;;;;;;;2.92;1.15;;;14.90;50.90;;;;;;5100314;28;20178;-72
2021/04/28 12:11:32;;;;;;;2.03;1.50;;;15.10;51.70;;;;;;5099359;28;20176;-70
2021/04/28 12:13:58;;;;;;;2.58;1.30;;;15.20;50.90;;;;;;5097901;28;20188;-72
2021/04/28 12:16:24;;;;;;;3.10;1.77;;;15.10;50.40;;;;;;5097243;28;20181;-72
2021/04/28 12:18:51;;;;;;;3.30;1.50;;;14.70;47.90;;;;;;5095517;28;20187;-71
2021/04/28 12:21:17;;;;;;;8.45;1.50;;;14.50;49.40;;;;;;5090204;28;20177;-73
2021/04/28 12:23:45;;;;;;;2.33;1.52;;;14.60;51.20;;;;;;5092662;28;20185;-74
2021/04/28 12:26:11;;;;;;;15.93;2.08;;;14.70;52.70;;;;;;5075986;28;20205;-69
2021/04/28 12:28:50;;;;;;;2.10;1.55;;;14.90;52.40;;;;;;5092750;28;20173;-68
2021/04/28 12:31:16;;;;;;;2.20;1.58;;;15.70;51.60;;;;;;5093075;28;20625;-69
2021/04/28 12:33:42;;;;;;;2.75;1.63;;;15.60;47.80;;;;;;5091805;28;20213;-70
2021/04/28 12:36:08;;;;;;;2.13;1.30;;;15.80;47.80;;;;;;5093140;28;20208;-71
2021/04/28 12:38:40;;;;;;;2.20;1.50;;;15.30;46.10;;;;;;5093192;28;20189;-71
2021/04/28 12:41:07;;;;;;;5.28;1.80;;;14.80;49.20;;;;;;5092075;28;20185;-69
2021/04/28 12:43:41;;;;;;;293.90;17.83;;;15.50;48.30;;;;;;5075437;28;20197;-71
2021/04/28 12:46:10;;;;;;;3.55;1.98;;;15.10;48.00;;;;;;5093812;28;20213;-70
2021/04/28 12:48:59;;;;;;;2.05;1.52;;;15.20;48.10;;;;;;5092542;28;20181;-69
2021/04/28 12:51:25;;;;;;;3.15;1.38;;;15.50;46.00;;;;;;5093212;28;20185;-70
2021/04/28 12:53:51;;;;;;;2.22;1.17;;;16.10;48.90;;;;;;5092128;28;20525;-71
2021/04/28 12:56:17;;;;;;;5.72;1.13;;;16.10;48.80;;;;;;5094027;28;20641;-70